sensor_id;sensor_type;location;lat;lon;timestamp;P1;durP1;ratioP1;P2;durP2;ratioP2
8102;SDS011;4094;49.948;11.574;2024-02-16T00:02:38;10.20;;;9.40;;
8102;SDS011;4094;49.948;11.574;2024-02-16T00:05:28;8.90;;;8.30;;
8102;SDS011;4094;49.948;11.574;2024-02-16T00:08:19;8.57;;;7.97;;
8102;SDS011;4094;49.948;11.574;2024-02-16T00:11:08;8.60;;;8.00;;
8102;SDS011;4094;49.948;11.574;2024-02-16T00:13:57;9.27;;;8.47;;
8102;SDS011;4094;49.948;11.574;2024-02-16T00:16:47;8.90;;;8.30;;
8102;SDS011;4094;49.948;11.574;2024-02-16T00:19:37;9.23;;;8.53;;
8102;SDS011;4094;49.948;11.574;2024-02-16T00:22:26;9.33;;;8.73;;
8102;SDS011;4094;49.948;11.574;2024-02-16T00:25:16;9.63;;;9.03;;
8102;SDS011;4094;49.948;11.574;2024-02-16T00:28:07;8.87;;;8.17;;
8102;SDS011;4094;49.948;11.574;2024-02-16T00:30:57;9.07;;;8.47;;
8102;SDS011;4094;49.948;11.574;2024-02-16T00:33:46;8.63;;;8.03;;
8102;SDS011;4094;49.948;11.574;2024-02-16T00:36:36;9.00;;;8.40;;
8102;SDS011;4094;49.948;11.574;2024-02-16T00:39:25;9.40;;;8.60;;
8102;SDS011;4094;49.948;11.574;2024-02-16T00:42:16;9.03;;;8.37;;
8102;SDS011;4094;49.948;11.574;2024-02-16T00:45:06;9.20;;;8.60;;
8102;SDS011;4094;49.948;11.574;2024-02-16T00:47:56;9.17;;;8.57;;
8102;SDS011;4094;49.948;11.574;2024-02-16T00:50:46;8.97;;;8.43;;
8102;SDS011;4094;49.948;11.574;2024-02-16T00:53:35;9.33;;;8.73;;
8102;SDS011;4094;49.948;11.574;2024-02-16T00:56:24;8.90;;;8.30;;
8102;SDS011;4094;49.948;11.574;2024-02-16T00:59:15;9.83;;;9.10;;
8102;SDS011;4094;49.948;11.574;2024-02-16T01:02:04;8.87;;;8.37;;
8102;SDS011;4094;49.948;11.574;2024-02-16T01:04:54;9.30;;;8.57;;
8102;SDS011;4094;49.948;11.574;2024-02-16T01:07:49;7.90;;;7.40;;
8102;SDS011;4094;49.948;11.574;2024-02-16T01:10:38;9.30;;;8.80;;
8102;SDS011;4094;49.948;11.574;2024-02-16T01:13:27;9.20;;;8.60;;
8102;SDS011;4094;49.948;11.574;2024-02-16T01:16:18;9.20;;;8.60;;
8102;SDS011;4094;49.948;11.574;2024-02-16T01:19:07;9.23;;;8.63;;
8102;SDS011;4094;49.948;11.574;2024-02-16T01:21:57;9.50;;;8.70;;
8102;SDS011;4094;49.948;11.574;2024-02-16T01:24:47;9.33;;;8.67;;
8102;SDS011;4094;49.948;11.574;2024-02-16T01:27:37;9.80;;;9.10;;
8102;SDS011;4094;49.948;11.574;2024-02-16T01:30:28;9.33;;;8.67;;
8102;SDS011;4094;49.948;11.574;2024-02-16T01:33:19;8.67;;;8.17;;
8102;SDS011;4094;49.948;11.574;2024-02-16T01:36:08;9.17;;;8.50;;
8102;SDS011;4094;49.948;11.574;2024-02-16T01:38:58;10.00;;;9.30;;
8102;SDS011;4094;49.948;11.574;2024-02-16T01:41:47;9.03;;;8.43;;
8102;SDS011;4094;49.948;11.574;2024-02-16T01:44:36;9.40;;;8.73;;
8102;SDS011;4094;49.948;11.574;2024-02-16T01:47:26;9.73;;;8.93;;
8102;SDS011;4094;49.948;11.574;2024-02-16T01:50:17;8.87;;;8.27;;
8102;SDS011;4094;49.948;11.574;2024-02-16T01:53:06;9.30;;;8.70;;
8102;SDS011;4094;49.948;11.574;2024-02-16T01:55:56;10.07;;;8.73;;
8102;SDS011;4094;49.948;11.574;2024-02-16T01:58:45;9.43;;;8.70;;
8102;SDS011;4094;49.948;11.574;2024-02-16T02:01:38;8.70;;;8.20;;
8102;SDS011;4094;49.948;11.574;2024-02-16T02:04:27;8.73;;;8.13;;
8102;SDS011;4094;49.948;11.574;2024-02-16T02:07:18;8.50;;;8.00;;
8102;SDS011;4094;49.948;11.574;2024-02-16T02:10:13;8.50;;;7.90;;
8102;SDS011;4094;49.948;11.574;2024-02-16T02:13:02;9.20;;;8.60;;
8102;SDS011;4094;49.948;11.574;2024-02-16T02:15:52;8.50;;;8.00;;
8102;SDS011;4094;49.948;11.574;2024-02-16T02:18:43;8.00;;;7.50;;
8102;SDS011;4094;49.948;11.574;2024-02-16T02:21:33;8.83;;;8.27;;
8102;SDS011;4094;49.948;11.574;2024-02-16T02:24:23;8.87;;;8.23;;
8102;SDS011;4094;49.948;11.574;2024-02-16T02:27:13;8.60;;;8.00;;
8102;SDS011;4094;49.948;11.574;2024-02-16T02:30:02;8.33;;;7.83;;
8102;SDS011;4094;49.948;11.574;2024-02-16T02:32:52;8.13;;;7.63;;
8102;SDS011;4094;49.948;11.574;2024-02-16T02:35:41;8.07;;;7.57;;
8102;SDS011;4094;49.948;11.574;2024-02-16T02:38:31;9.07;;;8.57;;
8102;SDS011;4094;49.948;11.574;2024-02-16T02:41:21;8.30;;;7.70;;
8102;SDS011;4094;49.948;11.574;2024-02-16T02:44:11;8.70;;;8.20;;
8102;SDS011;4094;49.948;11.574;2024-02-16T02:47:00;8.50;;;8.00;;
8102;SDS011;4094;49.948;11.574;2024-02-16T02:49:49;8.83;;;8.20;;
8102;SDS011;4094;49.948;11.574;2024-02-16T02:52:39;9.13;;;8.53;;
8102;SDS011;4094;49.948;11.574;2024-02-16T02:55:28;8.93;;;8.23;;
8102;SDS011;4094;49.948;11.574;2024-02-16T02:58:18;8.27;;;7.87;;
8102;SDS011;4094;49.948;11.574;2024-02-16T03:01:08;8.67;;;8.17;;
8102;SDS011;4094;49.948;11.574;2024-02-16T03:03:57;8.77;;;8.23;;
8102;SDS011;4094;49.948;11.574;2024-02-16T03:06:47;8.73;;;8.23;;
8102;SDS011;4094;49.948;11.574;2024-02-16T03:09:37;8.80;;;8.23;;
8102;SDS011;4094;49.948;11.574;2024-02-16T03:12:26;9.00;;;8.40;;
8102;SDS011;4094;49.948;11.574;2024-02-16T03:15:17;8.80;;;8.30;;
8102;SDS011;4094;49.948;11.574;2024-02-16T03:18:06;9.03;;;8.30;;
8102;SDS011;4094;49.948;11.574;2024-02-16T03:20:56;8.60;;;8.07;;
8102;SDS011;4094;49.948;11.574;2024-02-16T03:23:46;9.07;;;8.47;;
8102;SDS011;4094;49.948;11.574;2024-02-16T03:26:35;8.60;;;8.00;;
8102;SDS011;4094;49.948;11.574;2024-02-16T03:29:24;8.63;;;8.03;;
8102;SDS011;4094;49.948;11.574;2024-02-16T03:32:14;8.37;;;7.87;;
8102;SDS011;4094;49.948;11.574;2024-02-16T03:35:04;8.30;;;7.80;;
8102;SDS011;4094;49.948;11.574;2024-02-16T03:37:54;8.70;;;8.10;;
8102;SDS011;4094;49.948;11.574;2024-02-16T03:40:44;8.70;;;8.13;;
8102;SDS011;4094;49.948;11.574;2024-02-16T03:43:33;8.63;;;8.03;;
8102;SDS011;4094;49.948;11.574;2024-02-16T03:46:23;8.70;;;8.10;;
8102;SDS011;4094;49.948;11.574;2024-02-16T03:49:13;8.63;;;8.03;;
8102;SDS011;4094;49.948;11.574;2024-02-16T03:52:03;8.20;;;7.67;;
8102;SDS011;4094;49.948;11.574;2024-02-16T03:54:54;8.27;;;7.77;;
8102;SDS011;4094;49.948;11.574;2024-02-16T03:57:44;8.80;;;8.30;;
8102;SDS011;4094;49.948;11.574;2024-02-16T04:00:33;8.00;;;7.50;;
8102;SDS011;4094;49.948;11.574;2024-02-16T04:03:22;8.47;;;7.87;;
8102;SDS011;4094;49.948;11.574;2024-02-16T04:06:13;8.73;;;8.10;;
8102;SDS011;4094;49.948;11.574;2024-02-16T04:09:02;8.70;;;8.20;;
8102;SDS011;4094;49.948;11.574;2024-02-16T04:11:53;8.67;;;7.93;;
8102;SDS011;4094;49.948;11.574;2024-02-16T04:14:42;8.57;;;8.07;;
8102;SDS011;4094;49.948;11.574;2024-02-16T04:17:33;8.27;;;7.77;;
8102;SDS011;4094;49.948;11.574;2024-02-16T04:20:22;8.23;;;7.63;;
8102;SDS011;4094;49.948;11.574;2024-02-16T04:23:12;8.93;;;8.33;;
8102;SDS011;4094;49.948;11.574;2024-02-16T04:26:02;9.30;;;8.60;;
8102;SDS011;4094;49.948;11.574;2024-02-16T04:28:54;8.60;;;8.10;;
8102;SDS011;4094;49.948;11.574;2024-02-16T04:31:43;8.80;;;8.20;;
8102;SDS011;4094;49.948;11.574;2024-02-16T04:34:33;9.00;;;8.40;;
8102;SDS011;4094;49.948;11.574;2024-02-16T04:37:22;8.57;;;8.07;;
8102;SDS011;4094;49.948;11.574;2024-02-16T04:40:14;9.07;;;8.47;;
8102;SDS011;4094;49.948;11.574;2024-02-16T04:43:03;9.17;;;8.57;;
8102;SDS011;4094;49.948;11.574;2024-02-16T04:45:52;8.63;;;8.13;;
8102;SDS011;4094;49.948;11.574;2024-02-16T04:48:42;8.53;;;8.03;;
8102;SDS011;4094;49.948;11.574;2024-02-16T04:51:32;8.60;;;8.00;;
8102;SDS011;4094;49.948;11.574;2024-02-16T04:54:21;8.97;;;8.37;;
8102;SDS011;4094;49.948;11.574;2024-02-16T04:57:12;8.93;;;8.33;;
8102;SDS011;4094;49.948;11.574;2024-02-16T05:00:02;8.50;;;8.00;;
8102;SDS011;4094;49.948;11.574;2024-02-16T05:02:51;8.93;;;8.43;;
8102;SDS011;4094;49.948;11.574;2024-02-16T05:05:41;8.20;;;7.70;;
8102;SDS011;4094;49.948;11.574;2024-02-16T05:08:31;8.47;;;7.87;;
8102;SDS011;4094;49.948;11.574;2024-02-16T05:11:20;8.63;;;8.03;;
8102;SDS011;4094;49.948;11.574;2024-02-16T05:14:11;8.50;;;8.00;;
8102;SDS011;4094;49.948;11.574;2024-02-16T05:17:00;8.57;;;7.97;;
8102;SDS011;4094;49.948;11.574;2024-02-16T05:19:49;8.00;;;7.50;;
8102;SDS011;4094;49.948;11.574;2024-02-16T05:22:38;8.80;;;8.10;;
8102;SDS011;4094;49.948;11.574;2024-02-16T05:25:28;8.57;;;7.93;;
8102;SDS011;4094;49.948;11.574;2024-02-16T05:28:17;9.17;;;8.57;;
8102;SDS011;4094;49.948;11.574;2024-02-16T05:31:14;8.90;;;8.40;;
8102;SDS011;4094;49.948;11.574;2024-02-16T05:34:05;9.07;;;8.47;;
8102;SDS011;4094;49.948;11.574;2024-02-16T05:36:55;8.87;;;8.37;;
8102;SDS011;4094;49.948;11.574;2024-02-16T05:39:44;9.20;;;8.60;;
8102;SDS011;4094;49.948;11.574;2024-02-16T05:42:45;8.50;;;7.97;;
8102;SDS011;4094;49.948;11.574;2024-02-16T05:45:35;9.00;;;8.43;;
8102;SDS011;4094;49.948;11.574;2024-02-16T05:48:26;9.17;;;8.47;;
8102;SDS011;4094;49.948;11.574;2024-02-16T05:51:18;8.70;;;8.20;;
8102;SDS011;4094;49.948;11.574;2024-02-16T05:54:07;8.97;;;8.37;;
8102;SDS011;4094;49.948;11.574;2024-02-16T05:56:58;8.60;;;8.10;;
8102;SDS011;4094;49.948;11.574;2024-02-16T05:59:47;8.57;;;8.03;;
8102;SDS011;4094;49.948;11.574;2024-02-16T06:02:39;8.13;;;7.63;;
8102;SDS011;4094;49.948;11.574;2024-02-16T06:05:31;8.70;;;8.10;;
8102;SDS011;4094;49.948;11.574;2024-02-16T06:08:20;9.10;;;8.33;;
8102;SDS011;4094;49.948;11.574;2024-02-16T06:11:12;8.67;;;8.07;;
8102;SDS011;4094;49.948;11.574;2024-02-16T06:14:02;8.93;;;8.33;;
8102;SDS011;4094;49.948;11.574;2024-02-16T06:16:52;8.30;;;7.80;;
8102;SDS011;4094;49.948;11.574;2024-02-16T06:19:41;9.03;;;8.43;;
8102;SDS011;4094;49.948;11.574;2024-02-16T06:22:31;8.23;;;7.73;;
8102;SDS011;4094;49.948;11.574;2024-02-16T06:25:21;8.70;;;8.10;;
8102;SDS011;4094;49.948;11.574;2024-02-16T06:28:10;8.20;;;7.67;;
8102;SDS011;4094;49.948;11.574;2024-02-16T06:30:59;9.17;;;8.43;;
8102;SDS011;4094;49.948;11.574;2024-02-16T06:33:49;8.33;;;7.93;;
8102;SDS011;4094;49.948;11.574;2024-02-16T06:36:38;8.93;;;8.13;;
8102;SDS011;4094;49.948;11.574;2024-02-16T06:39:31;8.30;;;7.80;;
8102;SDS011;4094;49.948;11.574;2024-02-16T06:42:21;8.53;;;7.87;;
8102;SDS011;4094;49.948;11.574;2024-02-16T06:45:10;8.60;;;8.10;;
8102;SDS011;4094;49.948;11.574;2024-02-16T06:47:59;9.27;;;8.50;;
8102;SDS011;4094;49.948;11.574;2024-02-16T06:50:49;8.47;;;7.97;;
8102;SDS011;4094;49.948;11.574;2024-02-16T06:53:38;8.93;;;8.33;;
8102;SDS011;4094;49.948;11.574;2024-02-16T06:56:30;8.80;;;8.30;;
8102;SDS011;4094;49.948;11.574;2024-02-16T06:59:20;7.90;;;7.33;;
8102;SDS011;4094;49.948;11.574;2024-02-16T07:02:09;8.43;;;7.93;;
8102;SDS011;4094;49.948;11.574;2024-02-16T07:05:00;8.23;;;7.73;;
8102;SDS011;4094;49.948;11.574;2024-02-16T07:07:50;8.93;;;8.33;;
8102;SDS011;4094;49.948;11.574;2024-02-16T07:10:39;8.27;;;7.70;;
8102;SDS011;4094;49.948;11.574;2024-02-16T07:13:29;9.10;;;8.50;;
8102;SDS011;4094;49.948;11.574;2024-02-16T07:16:18;8.30;;;7.80;;
8102;SDS011;4094;49.948;11.574;2024-02-16T07:19:08;7.93;;;7.47;;
8102;SDS011;4094;49.948;11.574;2024-02-16T07:21:57;8.87;;;8.27;;
8102;SDS011;4094;49.948;11.574;2024-02-16T07:24:46;8.67;;;8.17;;
8102;SDS011;4094;49.948;11.574;2024-02-16T07:27:35;8.53;;;7.93;;
8102;SDS011;4094;49.948;11.574;2024-02-16T07:30:26;8.23;;;7.67;;
8102;SDS011;4094;49.948;11.574;2024-02-16T07:33:29;7.87;;;7.37;;
8102;SDS011;4094;49.948;11.574;2024-02-16T07:36:19;8.90;;;8.20;;
8102;SDS011;4094;49.948;11.574;2024-02-16T07:39:08;8.43;;;7.93;;
8102;SDS011;4094;49.948;11.574;2024-02-16T07:42:00;8.17;;;7.67;;
8102;SDS011;4094;49.948;11.574;2024-02-16T07:44:49;8.20;;;7.63;;
8102;SDS011;4094;49.948;11.574;2024-02-16T07:47:41;8.50;;;7.93;;
8102;SDS011;4094;49.948;11.574;2024-02-16T07:50:31;8.93;;;8.30;;
8102;SDS011;4094;49.948;11.574;2024-02-16T07:53:20;8.70;;;8.10;;
8102;SDS011;4094;49.948;11.574;2024-02-16T07:56:09;8.40;;;7.90;;
8102;SDS011;4094;49.948;11.574;2024-02-16T07:58:58;8.60;;;7.87;;
8102;SDS011;4094;49.948;11.574;2024-02-16T08:01:47;9.13;;;8.53;;
8102;SDS011;4094;49.948;11.574;2024-02-16T08:04:38;8.83;;;8.23;;
8102;SDS011;4094;49.948;11.574;2024-02-16T08:07:28;8.87;;;8.17;;
8102;SDS011;4094;49.948;11.574;2024-02-16T08:10:18;9.13;;;8.53;;
8102;SDS011;4094;49.948;11.574;2024-02-16T08:13:09;8.57;;;8.07;;
8102;SDS011;4094;49.948;11.574;2024-02-16T08:15:58;8.77;;;8.17;;
8102;SDS011;4094;49.948;11.574;2024-02-16T08:18:47;8.77;;;8.00;;
8102;SDS011;4094;49.948;11.574;2024-02-16T08:21:38;8.80;;;8.07;;
8102;SDS011;4094;49.948;11.574;2024-02-16T08:24:27;8.53;;;7.97;;
8102;SDS011;4094;49.948;11.574;2024-02-16T08:27:16;9.40;;;8.60;;
8102;SDS011;4094;49.948;11.574;2024-02-16T08:30:06;9.07;;;8.47;;
8102;SDS011;4094;49.948;11.574;2024-02-16T08:32:56;9.03;;;8.43;;
8102;SDS011;4094;49.948;11.574;2024-02-16T08:35:48;8.33;;;7.73;;
8102;SDS011;4094;49.948;11.574;2024-02-16T08:38:39;8.50;;;8.00;;
8102;SDS011;4094;49.948;11.574;2024-02-16T08:41:28;8.30;;;7.80;;
8102;SDS011;4094;49.948;11.574;2024-02-16T08:44:17;7.77;;;7.27;;
8102;SDS011;4094;49.948;11.574;2024-02-16T08:47:07;9.13;;;8.47;;
8102;SDS011;4094;49.948;11.574;2024-02-16T08:49:56;8.50;;;8.00;;
8102;SDS011;4094;49.948;11.574;2024-02-16T08:52:45;8.17;;;7.67;;
8102;SDS011;4094;49.948;11.574;2024-02-16T08:55:36;8.40;;;7.80;;
8102;SDS011;4094;49.948;11.574;2024-02-16T08:58:25;8.30;;;7.80;;
8102;SDS011;4094;49.948;11.574;2024-02-16T09:01:14;9.00;;;8.30;;
8102;SDS011;4094;49.948;11.574;2024-02-16T09:04:04;8.43;;;7.73;;
8102;SDS011;4094;49.948;11.574;2024-02-16T09:06:53;8.27;;;7.67;;
8102;SDS011;4094;49.948;11.574;2024-02-16T09:09:43;8.60;;;8.00;;
8102;SDS011;4094;49.948;11.574;2024-02-16T09:12:34;9.07;;;8.40;;
8102;SDS011;4094;49.948;11.574;2024-02-16T09:15:23;8.63;;;8.03;;
8102;SDS011;4094;49.948;11.574;2024-02-16T09:18:12;8.80;;;8.20;;
8102;SDS011;4094;49.948;11.574;2024-02-16T09:21:01;9.07;;;8.43;;
8102;SDS011;4094;49.948;11.574;2024-02-16T09:23:50;8.87;;;8.27;;
8102;SDS011;4094;49.948;11.574;2024-02-16T09:26:40;8.67;;;8.03;;
8102;SDS011;4094;49.948;11.574;2024-02-16T09:29:30;8.40;;;7.83;;
8102;SDS011;4094;49.948;11.574;2024-02-16T09:32:20;8.33;;;7.83;;
8102;SDS011;4094;49.948;11.574;2024-02-16T09:35:10;9.23;;;8.63;;
8102;SDS011;4094;49.948;11.574;2024-02-16T09:38:00;8.80;;;8.20;;
8102;SDS011;4094;49.948;11.574;2024-02-16T09:40:50;9.00;;;8.30;;
8102;SDS011;4094;49.948;11.574;2024-02-16T09:43:39;9.73;;;8.67;;
8102;SDS011;4094;49.948;11.574;2024-02-16T09:46:31;8.93;;;8.07;;
8102;SDS011;4094;49.948;11.574;2024-02-16T09:49:21;8.90;;;8.07;;
8102;SDS011;4094;49.948;11.574;2024-02-16T09:52:21;9.40;;;8.70;;
8102;SDS011;4094;49.948;11.574;2024-02-16T09:55:12;8.90;;;8.30;;
8102;SDS011;4094;49.948;11.574;2024-02-16T09:58:02;9.47;;;8.83;;
8102;SDS011;4094;49.948;11.574;2024-02-16T10:00:53;9.00;;;8.20;;
8102;SDS011;4094;49.948;11.574;2024-02-16T10:03:46;9.00;;;8.30;;
8102;SDS011;4094;49.948;11.574;2024-02-16T10:06:45;8.87;;;8.27;;
8102;SDS011;4094;49.948;11.574;2024-02-16T10:09:35;9.20;;;8.33;;
8102;SDS011;4094;49.948;11.574;2024-02-16T10:12:25;8.67;;;7.97;;
8102;SDS011;4094;49.948;11.574;2024-02-16T10:15:21;8.47;;;7.77;;
8102;SDS011;4094;49.948;11.574;2024-02-16T10:18:12;9.20;;;8.50;;
8102;SDS011;4094;49.948;11.574;2024-02-16T10:21:03;9.10;;;8.50;;
8102;SDS011;4094;49.948;11.574;2024-02-16T10:23:57;9.00;;;8.23;;
8102;SDS011;4094;49.948;11.574;2024-02-16T10:26:48;8.20;;;7.60;;
8102;SDS011;4094;49.948;11.574;2024-02-16T10:29:37;8.63;;;8.03;;
8102;SDS011;4094;49.948;11.574;2024-02-16T10:32:28;8.00;;;7.50;;
8102;SDS011;4094;49.948;11.574;2024-02-16T10:35:17;8.03;;;7.33;;
8102;SDS011;4094;49.948;11.574;2024-02-16T10:38:09;8.47;;;7.87;;
8102;SDS011;4094;49.948;11.574;2024-02-16T10:40:59;9.03;;;8.33;;
8102;SDS011;4094;49.948;11.574;2024-02-16T10:43:50;8.40;;;7.90;;
8102;SDS011;4094;49.948;11.574;2024-02-16T10:46:41;8.53;;;7.73;;
8102;SDS011;4094;49.948;11.574;2024-02-16T10:49:30;8.20;;;7.63;;
8102;SDS011;4094;49.948;11.574;2024-02-16T10:52:21;7.90;;;7.33;;
8102;SDS011;4094;49.948;11.574;2024-02-16T10:55:12;7.70;;;7.20;;
8102;SDS011;4094;49.948;11.574;2024-02-16T10:58:06;8.30;;;7.80;;
8102;SDS011;4094;49.948;11.574;2024-02-16T11:00:57;7.53;;;7.03;;
8102;SDS011;4094;49.948;11.574;2024-02-16T11:03:46;8.37;;;7.77;;
8102;SDS011;4094;49.948;11.574;2024-02-16T11:06:46;9.17;;;8.47;;
8102;SDS011;4094;49.948;11.574;2024-02-16T11:09:38;9.23;;;8.53;;
8102;SDS011;4094;49.948;11.574;2024-02-16T11:12:34;8.93;;;8.33;;
8102;SDS011;4094;49.948;11.574;2024-02-16T11:15:27;8.53;;;7.73;;
8102;SDS011;4094;49.948;11.574;2024-02-16T11:18:17;8.80;;;8.00;;
8102;SDS011;4094;49.948;11.574;2024-02-16T11:21:06;9.20;;;8.33;;
8102;SDS011;4094;49.948;11.574;2024-02-16T11:24:03;8.57;;;7.87;;
8102;SDS011;4094;49.948;11.574;2024-02-16T11:26:55;8.97;;;8.30;;
8102;SDS011;4094;49.948;11.574;2024-02-16T11:29:46;8.83;;;8.10;;
8102;SDS011;4094;49.948;11.574;2024-02-16T11:32:37;8.60;;;8.00;;
8102;SDS011;4094;49.948;11.574;2024-02-16T11:35:28;8.60;;;8.00;;
8102;SDS011;4094;49.948;11.574;2024-02-16T11:38:18;8.97;;;8.27;;
8102;SDS011;4094;49.948;11.574;2024-02-16T11:41:07;8.93;;;8.33;;
8102;SDS011;4094;49.948;11.574;2024-02-16T11:43:58;8.70;;;8.10;;
8102;SDS011;4094;49.948;11.574;2024-02-16T11:46:52;8.67;;;8.07;;
8102;SDS011;4094;49.948;11.574;2024-02-16T11:49:41;8.60;;;8.00;;
8102;SDS011;4094;49.948;11.574;2024-02-16T11:52:31;8.43;;;7.83;;
8102;SDS011;4094;49.948;11.574;2024-02-16T11:55:20;8.23;;;7.63;;
8102;SDS011;4094;49.948;11.574;2024-02-16T11:58:09;8.40;;;7.80;;
8102;SDS011;4094;49.948;11.574;2024-02-16T12:00:58;8.00;;;7.40;;
8102;SDS011;4094;49.948;11.574;2024-02-16T12:03:52;8.53;;;7.93;;
8102;SDS011;4094;49.948;11.574;2024-02-16T12:06:41;8.63;;;7.90;;
8102;SDS011;4094;49.948;11.574;2024-02-16T12:09:33;8.10;;;7.50;;
8102;SDS011;4094;49.948;11.574;2024-02-16T12:12:24;8.30;;;7.70;;
8102;SDS011;4094;49.948;11.574;2024-02-16T12:15:13;7.97;;;7.37;;
8102;SDS011;4094;49.948;11.574;2024-02-16T12:18:05;8.83;;;8.03;;
8102;SDS011;4094;49.948;11.574;2024-02-16T12:20:59;7.93;;;7.33;;
8102;SDS011;4094;49.948;11.574;2024-02-16T12:23:49;7.30;;;6.80;;
8102;SDS011;4094;49.948;11.574;2024-02-16T12:26:38;7.83;;;7.23;;
8102;SDS011;4094;49.948;11.574;2024-02-16T12:29:28;7.57;;;6.97;;
8102;SDS011;4094;49.948;11.574;2024-02-16T12:32:17;7.67;;;7.03;;
8102;SDS011;4094;49.948;11.574;2024-02-16T12:35:07;6.87;;;6.33;;
8102;SDS011;4094;49.948;11.574;2024-02-16T12:37:58;7.27;;;6.77;;
8102;SDS011;4094;49.948;11.574;2024-02-16T12:40:47;7.10;;;6.60;;
8102;SDS011;4094;49.948;11.574;2024-02-16T12:43:37;7.40;;;6.80;;
8102;SDS011;4094;49.948;11.574;2024-02-16T12:46:26;6.60;;;6.20;;
8102;SDS011;4094;49.948;11.574;2024-02-16T12:49:15;6.97;;;6.47;;
8102;SDS011;4094;49.948;11.574;2024-02-16T12:52:06;7.13;;;6.37;;
8102;SDS011;4094;49.948;11.574;2024-02-16T12:54:57;7.37;;;6.73;;
8102;SDS011;4094;49.948;11.574;2024-02-16T12:57:46;7.23;;;6.57;;
8102;SDS011;4094;49.948;11.574;2024-02-16T13:00:37;6.53;;;6.13;;
8102;SDS011;4094;49.948;11.574;2024-02-16T13:03:26;6.23;;;5.67;;
8102;SDS011;4094;49.948;11.574;2024-02-16T13:06:15;6.73;;;6.17;;
8102;SDS011;4094;49.948;11.574;2024-02-16T13:09:05;7.10;;;6.47;;
8102;SDS011;4094;49.948;11.574;2024-02-16T13:11:57;6.40;;;5.90;;
8102;SDS011;4094;49.948;11.574;2024-02-16T13:14:46;6.90;;;6.37;;
8102;SDS011;4094;49.948;11.574;2024-02-16T13:17:35;6.50;;;6.00;;
8102;SDS011;4094;49.948;11.574;2024-02-16T13:20:24;6.27;;;5.70;;
8102;SDS011;4094;49.948;11.574;2024-02-16T13:23:14;6.43;;;5.93;;
8102;SDS011;4094;49.948;11.574;2024-02-16T13:26:03;5.90;;;5.50;;
8102;SDS011;4094;49.948;11.574;2024-02-16T13:28:54;5.83;;;5.43;;
8102;SDS011;4094;49.948;11.574;2024-02-16T13:31:43;5.80;;;5.33;;
8102;SDS011;4094;49.948;11.574;2024-02-16T13:34:33;6.53;;;5.93;;
8102;SDS011;4094;49.948;11.574;2024-02-16T13:37:22;6.40;;;5.90;;
8102;SDS011;4094;49.948;11.574;2024-02-16T13:40:11;5.87;;;5.47;;
8102;SDS011;4094;49.948;11.574;2024-02-16T13:43:01;6.67;;;6.10;;
8102;SDS011;4094;49.948;11.574;2024-02-16T13:45:53;7.00;;;6.50;;
8102;SDS011;4094;49.948;11.574;2024-02-16T13:48:45;5.87;;;5.47;;
8102;SDS011;4094;49.948;11.574;2024-02-16T13:51:34;6.80;;;6.30;;
8102;SDS011;4094;49.948;11.574;2024-02-16T13:54:23;6.30;;;5.90;;
8102;SDS011;4094;49.948;11.574;2024-02-16T13:57:12;6.77;;;6.27;;
8102;SDS011;4094;49.948;11.574;2024-02-16T14:00:02;6.40;;;5.80;;
8102;SDS011;4094;49.948;11.574;2024-02-16T14:03:00;6.40;;;5.90;;
8102;SDS011;4094;49.948;11.574;2024-02-16T14:05:49;6.00;;;5.50;;
8102;SDS011;4094;49.948;11.574;2024-02-16T14:08:39;6.80;;;6.30;;
8102;SDS011;4094;49.948;11.574;2024-02-16T14:11:28;6.73;;;6.23;;
8102;SDS011;4094;49.948;11.574;2024-02-16T14:14:17;6.80;;;6.30;;
8102;SDS011;4094;49.948;11.574;2024-02-16T14:17:22;5.90;;;5.50;;
8102;SDS011;4094;49.948;11.574;2024-02-16T14:20:13;7.00;;;6.50;;
8102;SDS011;4094;49.948;11.574;2024-02-16T14:23:05;6.57;;;6.03;;
8102;SDS011;4094;49.948;11.574;2024-02-16T14:25:57;7.27;;;6.77;;
8102;SDS011;4094;49.948;11.574;2024-02-16T14:28:46;7.10;;;6.60;;
8102;SDS011;4094;49.948;11.574;2024-02-16T14:31:36;6.00;;;5.60;;
8102;SDS011;4094;49.948;11.574;2024-02-16T14:34:25;6.70;;;6.20;;
8102;SDS011;4094;49.948;11.574;2024-02-16T14:37:16;6.47;;;6.07;;
8102;SDS011;4094;49.948;11.574;2024-02-16T14:40:06;6.90;;;6.40;;
8102;SDS011;4094;49.948;11.574;2024-02-16T14:42:58;6.60;;;6.10;;
8102;SDS011;4094;49.948;11.574;2024-02-16T14:45:49;7.00;;;6.47;;
8102;SDS011;4094;49.948;11.574;2024-02-16T14:48:39;6.53;;;5.93;;
8102;SDS011;4094;49.948;11.574;2024-02-16T14:51:28;6.60;;;6.10;;
8102;SDS011;4094;49.948;11.574;2024-02-16T14:54:19;6.80;;;5.53;;
8102;SDS011;4094;49.948;11.574;2024-02-16T14:57:08;6.40;;;5.90;;
8102;SDS011;4094;49.948;11.574;2024-02-16T14:59:58;6.73;;;6.13;;
8102;SDS011;4094;49.948;11.574;2024-02-16T15:02:47;6.77;;;6.27;;
8102;SDS011;4094;49.948;11.574;2024-02-16T15:05:39;6.87;;;6.23;;
8102;SDS011;4094;49.948;11.574;2024-02-16T15:08:29;7.00;;;6.33;;
8102;SDS011;4094;49.948;11.574;2024-02-16T15:11:20;7.30;;;6.70;;
8102;SDS011;4094;49.948;11.574;2024-02-16T15:14:09;7.10;;;6.47;;
8102;SDS011;4094;49.948;11.574;2024-02-16T15:17:05;7.67;;;6.77;;
8102;SDS011;4094;49.948;11.574;2024-02-16T15:19:55;7.70;;;7.10;;
8102;SDS011;4094;49.948;11.574;2024-02-16T15:22:45;6.87;;;6.37;;
8102;SDS011;4094;49.948;11.574;2024-02-16T15:25:39;7.23;;;6.63;;
8102;SDS011;4094;49.948;11.574;2024-02-16T15:28:30;7.00;;;6.40;;
8102;SDS011;4094;49.948;11.574;2024-02-16T15:31:20;7.30;;;6.70;;
8102;SDS011;4094;49.948;11.574;2024-02-16T15:34:09;6.97;;;6.43;;
8102;SDS011;4094;49.948;11.574;2024-02-16T15:36:58;7.40;;;6.80;;
8102;SDS011;4094;49.948;11.574;2024-02-16T15:39:49;6.97;;;6.37;;
8102;SDS011;4094;49.948;11.574;2024-02-16T15:42:40;6.87;;;6.40;;
8102;SDS011;4094;49.948;11.574;2024-02-16T15:45:31;6.47;;;5.90;;
8102;SDS011;4094;49.948;11.574;2024-02-16T15:48:22;6.53;;;6.13;;
8102;SDS011;4094;49.948;11.574;2024-02-16T15:51:13;7.50;;;7.00;;
8102;SDS011;4094;49.948;11.574;2024-02-16T15:54:02;7.37;;;6.87;;
8102;SDS011;4094;49.948;11.574;2024-02-16T15:56:52;7.00;;;6.50;;
8102;SDS011;4094;49.948;11.574;2024-02-16T15:59:45;7.37;;;6.80;;
8102;SDS011;4094;49.948;11.574;2024-02-16T16:02:35;7.00;;;6.50;;
8102;SDS011;4094;49.948;11.574;2024-02-16T16:05:25;7.57;;;6.97;;
8102;SDS011;4094;49.948;11.574;2024-02-16T16:08:15;7.80;;;7.20;;
8102;SDS011;4094;49.948;11.574;2024-02-16T16:11:07;7.60;;;7.10;;
8102;SDS011;4094;49.948;11.574;2024-02-16T16:13:56;7.30;;;6.70;;
8102;SDS011;4094;49.948;11.574;2024-02-16T16:16:46;7.97;;;7.17;;
8102;SDS011;4094;49.948;11.574;2024-02-16T16:19:42;8.33;;;7.73;;
8102;SDS011;4094;49.948;11.574;2024-02-16T16:22:31;7.77;;;7.07;;
8102;SDS011;4094;49.948;11.574;2024-02-16T16:25:21;7.50;;;6.90;;
8102;SDS011;4094;49.948;11.574;2024-02-16T16:28:10;7.43;;;6.87;;
8102;SDS011;4094;49.948;11.574;2024-02-16T16:30:59;8.60;;;7.97;;
8102;SDS011;4094;49.948;11.574;2024-02-16T16:33:48;7.87;;;7.27;;
8102;SDS011;4094;49.948;11.574;2024-02-16T16:36:39;7.90;;;7.30;;
8102;SDS011;4094;49.948;11.574;2024-02-16T16:39:29;8.03;;;7.43;;
8102;SDS011;4094;49.948;11.574;2024-02-16T16:42:18;8.00;;;7.40;;
8102;SDS011;4094;49.948;11.574;2024-02-16T16:45:08;7.90;;;7.23;;
8102;SDS011;4094;49.948;11.574;2024-02-16T16:47:59;7.67;;;7.10;;
8102;SDS011;4094;49.948;11.574;2024-02-16T16:50:49;8.70;;;7.93;;
8102;SDS011;4094;49.948;11.574;2024-02-16T16:53:40;8.43;;;7.83;;
8102;SDS011;4094;49.948;11.574;2024-02-16T16:56:30;8.20;;;7.60;;
8102;SDS011;4094;49.948;11.574;2024-02-16T16:59:23;8.83;;;8.03;;
8102;SDS011;4094;49.948;11.574;2024-02-16T17:02:12;9.17;;;8.43;;
8102;SDS011;4094;49.948;11.574;2024-02-16T17:05:01;10.57;;;7.73;;
8102;SDS011;4094;49.948;11.574;2024-02-16T17:07:51;7.90;;;7.30;;
8102;SDS011;4094;49.948;11.574;2024-02-16T17:10:42;8.40;;;7.70;;
8102;SDS011;4094;49.948;11.574;2024-02-16T17:13:32;8.30;;;7.50;;
8102;SDS011;4094;49.948;11.574;2024-02-16T17:16:21;8.40;;;7.80;;
8102;SDS011;4094;49.948;11.574;2024-02-16T17:19:10;8.53;;;7.73;;
8102;SDS011;4094;49.948;11.574;2024-02-16T17:22:00;8.20;;;7.60;;